createdAt,value
2018-09-11T00:01:13.976Z,21.26
2018-09-11T00:03:42.696Z,21.23
2018-09-11T00:06:11.303Z,21.21
2018-09-11T00:08:39.972Z,21.18
2018-09-11T00:11:08.530Z,21.15
2018-09-11T00:13:37.094Z,21.13
2018-09-11T00:16:05.604Z,21.09
2018-09-11T00:18:34.189Z,21.08
2018-09-11T00:21:02.768Z,21.05
2018-09-11T00:23:31.415Z,21.03
2018-09-11T00:25:59.993Z,21.01
2018-09-11T00:28:28.503Z,20.98
2018-09-11T00:30:57.141Z,20.97
2018-09-11T00:33:25.716Z,20.96
2018-09-11T00:35:54.305Z,20.95
2018-09-11T00:38:22.893Z,20.93
2018-09-11T00:40:51.503Z,20.92
2018-09-11T00:43:20.085Z,20.91
2018-09-11T00:45:48.646Z,20.89
2018-09-11T00:48:17.348Z,20.88
2018-09-11T00:50:45.990Z,20.86
2018-09-11T00:53:14.513Z,20.85
2018-09-11T00:55:43.029Z,20.86
2018-09-11T00:58:11.593Z,20.87
2018-09-11T01:00:40.208Z,20.87
2018-09-11T01:03:08.808Z,20.88
2018-09-11T01:05:37.430Z,20.89
2018-09-11T01:08:05.966Z,20.86
2018-09-11T01:10:34.578Z,20.87
2018-09-11T01:13:03.196Z,20.86
2018-09-11T01:15:31.826Z,20.85
2018-09-11T01:18:00.476Z,20.84
2018-09-11T01:20:29.120Z,20.85
2018-09-11T01:22:57.649Z,20.85
2018-09-11T01:25:26.197Z,20.86
2018-09-11T01:27:54.710Z,20.86
2018-09-11T01:30:23.860Z,20.86
2018-09-11T01:32:52.898Z,20.86
2018-09-11T01:35:22.197Z,20.84
2018-09-11T01:37:50.737Z,20.83
2018-09-11T01:40:19.372Z,20.81
2018-09-11T01:42:47.905Z,20.79
2018-09-11T01:45:16.540Z,20.78
2018-09-11T01:47:45.124Z,20.76
2018-09-11T01:50:13.705Z,20.74
2018-09-11T01:52:42.374Z,20.72
2018-09-11T01:55:10.917Z,20.68
2018-09-11T01:57:39.562Z,20.65
2018-09-11T02:00:12.306Z,20.62
2018-09-11T02:02:40.921Z,20.58
2018-09-11T02:05:09.528Z,20.54
2018-09-11T02:07:38.142Z,20.51
2018-09-11T02:10:06.783Z,20.48
2018-09-11T02:12:35.264Z,20.46
2018-09-11T02:15:03.991Z,20.45
2018-09-11T02:17:32.642Z,20.40
2018-09-11T02:20:01.224Z,20.36
2018-09-11T02:22:29.765Z,20.35
2018-09-11T02:24:59.673Z,20.33
2018-09-11T02:27:28.381Z,20.32
2018-09-11T02:29:56.955Z,20.31
2018-09-11T02:32:26.101Z,20.29
2018-09-11T02:34:55.100Z,20.28
2018-09-11T02:37:23.731Z,20.25
2018-09-11T02:39:52.465Z,20.23
2018-09-11T02:42:20.994Z,20.22
2018-09-11T02:44:49.612Z,20.20
2018-09-11T02:47:18.197Z,20.19
2018-09-11T02:49:46.814Z,20.18
2018-09-11T02:52:15.447Z,20.16
2018-09-11T02:54:44.251Z,20.17
2018-09-11T02:57:12.802Z,20.17
2018-09-11T02:59:41.425Z,20.16
2018-09-11T03:02:10.002Z,20.16
2018-09-11T03:04:38.564Z,20.14
2018-09-11T03:07:07.182Z,20.11
2018-09-11T03:09:35.757Z,20.10
2018-09-11T03:12:04.424Z,20.09
2018-09-11T03:14:32.954Z,20.08
2018-09-11T03:17:01.536Z,20.07
2018-09-11T03:19:30.164Z,20.08
2018-09-11T03:21:58.801Z,20.06
2018-09-11T03:24:27.414Z,20.07
2018-09-11T03:26:55.974Z,20.07
2018-09-11T03:29:24.521Z,20.10
2018-09-11T03:31:53.108Z,20.10
2018-09-11T03:34:21.681Z,20.12
2018-09-11T03:36:50.767Z,20.18
2018-09-11T03:39:19.435Z,20.24
2018-09-11T03:41:48.088Z,20.32
2018-09-11T03:44:16.724Z,20.38
2018-09-11T03:46:45.385Z,20.45
2018-09-11T03:49:13.936Z,20.49
2018-09-11T03:51:42.580Z,20.53
2018-09-11T03:54:11.140Z,20.04
2018-09-11T03:56:39.823Z,20.66
2018-09-11T03:59:08.419Z,20.70
2018-09-11T04:01:37.029Z,20.74
2018-09-11T04:04:05.627Z,20.77
2018-09-11T04:06:34.182Z,20.80
2018-09-11T04:09:02.781Z,20.76
2018-09-11T04:11:31.422Z,20.75
2018-09-11T04:14:00.052Z,20.77
2018-09-11T04:16:28.728Z,20.80
2018-09-11T04:18:57.294Z,20.81
2018-09-11T04:21:27.703Z,20.84
2018-09-11T04:23:56.267Z,20.85
2018-09-11T04:26:24.884Z,20.90
2018-09-11T04:28:53.553Z,20.93
2018-09-11T04:31:22.342Z,20.92
2018-09-11T04:33:50.988Z,20.93
2018-09-11T04:36:19.586Z,20.97
2018-09-11T04:38:48.264Z,20.98
2018-09-11T04:41:16.795Z,20.99
2018-09-11T04:43:45.515Z,20.98
2018-09-11T04:46:14.149Z,20.99
2018-09-11T04:48:44.732Z,20.98
2018-09-11T04:51:13.329Z,20.95
2018-09-11T04:53:41.933Z,20.95
2018-09-11T04:56:10.547Z,20.98
2018-09-11T04:58:39.188Z,21.01
2018-09-11T05:01:07.795Z,21.00
2018-09-11T05:03:39.304Z,20.98
2018-09-11T05:06:08.018Z,21.00
2018-09-11T05:08:36.632Z,21.02
2018-09-11T05:11:05.484Z,21.05
2018-09-11T05:13:34.440Z,21.01
2018-09-11T05:16:03.032Z,21.05
2018-09-11T05:18:31.690Z,21.04
2018-09-11T05:21:00.756Z,21.05
2018-09-11T05:23:29.786Z,21.04
2018-09-11T05:25:59.165Z,21.02
2018-09-11T05:28:37.803Z,21.04
2018-09-11T05:31:07.099Z,21.07
2018-09-11T05:33:36.022Z,21.12
2018-09-11T05:38:41.988Z,21.15
2018-09-11T05:41:11.407Z,21.16
2018-09-11T05:43:40.187Z,21.20
2018-09-11T05:46:12.334Z,21.25
2018-09-11T05:48:41.393Z,21.30
2018-09-11T05:51:13.881Z,21.29
2018-09-11T05:53:42.755Z,21.28
2018-09-11T05:56:11.476Z,21.30
2018-09-11T05:58:40.121Z,21.29
2018-09-11T06:01:08.756Z,21.29
2018-09-11T06:03:37.337Z,21.34
2018-09-11T06:06:07.030Z,21.36
2018-09-11T06:08:35.558Z,21.41
2018-09-11T06:11:04.109Z,21.43
2018-09-11T06:13:32.685Z,21.41
2018-09-11T06:16:01.940Z,21.45
2018-09-11T06:18:30.602Z,21.52
2018-09-11T06:20:59.190Z,21.61
2018-09-11T06:23:27.661Z,21.70
2018-09-11T06:25:56.316Z,21.91
2018-09-11T06:28:24.963Z,22.17
2018-09-11T06:30:53.558Z,22.46
2018-09-11T06:33:22.053Z,22.64
2018-09-11T06:35:50.640Z,22.73
2018-09-11T06:38:19.226Z,22.80
2018-09-11T06:40:47.869Z,22.93
2018-09-11T06:43:16.693Z,23.07
2018-09-11T06:45:45.281Z,23.44
2018-09-11T06:48:13.893Z,23.78
2018-09-11T06:50:42.443Z,24.07
2018-09-11T06:53:11.385Z,24.18
2018-09-11T06:55:39.979Z,24.52
2018-09-11T06:58:08.928Z,25.09
2018-09-11T07:00:37.702Z,25.72
2018-09-11T07:03:06.548Z,26.32
2018-09-11T07:05:35.159Z,26.69
2018-09-11T07:08:03.816Z,26.78
2018-09-11T07:10:32.491Z,27.08
2018-09-11T07:13:01.183Z,27.67
2018-09-11T07:15:29.889Z,27.69
2018-09-11T07:17:58.802Z,28.96
2018-09-11T07:20:27.697Z,29.13
2018-09-11T07:22:56.314Z,29.34
2018-09-11T07:25:25.047Z,29.70
2018-09-11T07:27:55.236Z,30.15
2018-09-11T07:30:24.136Z,30.50
2018-09-11T07:32:52.885Z,30.62
2018-09-11T07:35:21.495Z,30.61
2018-09-11T07:37:50.194Z,30.41
2018-09-11T07:40:18.735Z,30.25
2018-09-11T07:42:47.363Z,30.10
2018-09-11T07:45:16.025Z,29.78
2018-09-11T07:47:44.705Z,29.47
2018-09-11T07:50:13.488Z,29.07
2018-09-11T07:52:42.361Z,28.74
2018-09-11T07:55:10.922Z,28.46
2018-09-11T07:57:39.730Z,28.21
2018-09-11T08:00:08.841Z,27.99
2018-09-11T08:02:37.439Z,27.73
2018-09-11T08:05:06.049Z,27.65
2018-09-11T08:07:34.639Z,27.66
2018-09-11T08:10:03.331Z,27.73
2018-09-11T08:12:31.909Z,27.94
2018-09-11T08:15:00.592Z,28.49
2018-09-11T08:17:29.181Z,29.47
2018-09-11T08:19:58.031Z,30.51
2018-09-11T08:22:26.833Z,31.51
2018-09-11T08:24:55.493Z,32.26
2018-09-11T08:27:24.285Z,33.00
2018-09-11T08:29:53.072Z,33.60
2018-09-11T08:32:21.686Z,34.16
2018-09-11T08:34:50.305Z,34.72
2018-09-11T08:37:19.109Z,35.23
2018-09-11T08:39:47.942Z,35.73
2018-09-11T08:42:16.767Z,36.19
2018-09-11T08:44:45.384Z,36.81
2018-09-11T08:47:14.030Z,37.18
2018-09-11T08:49:42.596Z,37.57
2018-09-11T08:52:11.289Z,38.10
2018-09-11T08:54:40.024Z,38.71
2018-09-11T08:57:08.625Z,39.07
2018-09-11T08:59:37.697Z,39.58
2018-09-11T09:02:06.801Z,40.09
2018-09-11T09:04:37.189Z,40.58
2018-09-11T09:07:11.383Z,41.03
2018-09-11T09:09:41.349Z,41.50
2018-09-11T09:12:10.763Z,41.74
2018-09-11T09:14:39.851Z,41.65
2018-09-11T09:17:08.912Z,41.36
2018-09-11T09:19:38.186Z,41.31
2018-09-11T09:22:07.462Z,41.26
2018-09-11T09:24:36.659Z,41.20
2018-09-11T09:27:07.112Z,40.85
2018-09-11T09:29:36.042Z,40.85
2018-09-11T16:37:35.072Z,30.44
2018-09-11T16:40:04.517Z,30.41
2018-09-11T16:42:33.263Z,30.37
2018-09-11T16:45:01.882Z,30.34
2018-09-11T16:47:30.515Z,30.28
2018-09-11T16:49:59.265Z,30.24
2018-09-11T16:52:28.233Z,30.19
2018-09-11T16:54:57.022Z,30.16
2018-09-11T16:57:25.799Z,30.13
2018-09-11T16:59:54.579Z,30.10
2018-09-11T17:02:23.374Z,29.99
2018-09-11T17:04:52.072Z,29.98
2018-09-11T17:07:20.616Z,29.89
2018-09-11T17:09:49.230Z,29.88
2018-09-11T17:12:17.811Z,29.83
2018-09-11T17:14:46.597Z,29.80
2018-09-11T17:17:15.937Z,29.75
2018-09-11T17:19:44.610Z,29.69
2018-09-11T17:22:13.350Z,29.66
2018-09-11T17:24:42.031Z,29.61
2018-09-11T17:27:10.915Z,29.54
2018-09-11T17:29:39.477Z,29.49
2018-09-11T17:32:08.108Z,29.45
2018-09-11T17:34:36.663Z,29.39
2018-09-11T17:37:05.448Z,29.33
2018-09-11T17:39:33.990Z,29.25
2018-09-11T17:42:02.671Z,29.20
2018-09-11T17:44:31.309Z,29.15
2018-09-11T17:46:59.796Z,29.07
2018-09-11T17:49:28.390Z,29.02
2018-09-11T17:51:56.968Z,28.95
2018-09-11T17:54:25.509Z,28.87
2018-09-11T17:56:54.057Z,28.81
2018-09-11T17:59:22.667Z,28.76
2018-09-11T18:01:51.237Z,28.69
2018-09-11T18:04:19.841Z,28.63
2018-09-11T18:06:48.448Z,28.55
2018-09-11T18:09:17.119Z,28.50
2018-09-11T18:11:45.742Z,28.44
2018-09-11T18:14:14.323Z,28.37
2018-09-11T18:16:42.843Z,28.34
2018-09-11T18:19:11.514Z,28.29
2018-09-11T18:21:40.073Z,28.25
2018-09-11T18:24:10.783Z,28.20
2018-09-11T18:26:41.519Z,28.13
2018-09-11T18:29:10.231Z,28.10
2018-09-11T18:31:38.964Z,28.07
2018-09-11T18:34:07.573Z,28.03
2018-09-11T18:36:36.227Z,27.98
2018-09-11T18:39:06.395Z,27.95
2018-09-11T18:41:35.003Z,27.91
2018-09-11T18:44:03.672Z,27.87
2018-09-11T18:46:32.487Z,27.81
2018-09-11T18:49:01.140Z,27.76
2018-09-11T18:51:29.856Z,27.72
2018-09-11T18:53:58.350Z,27.66
2018-09-11T18:56:27.016Z,27.62
2018-09-11T18:58:55.587Z,27.56
2018-09-11T19:01:24.203Z,27.53
2018-09-11T19:03:52.839Z,27.48
2018-09-11T19:06:21.377Z,27.43
2018-09-11T19:08:50.004Z,27.38
2018-09-11T19:11:18.762Z,27.34
2018-09-11T19:13:47.378Z,27.29
2018-09-11T19:16:16.041Z,27.25
2018-09-11T19:18:44.717Z,27.22
2018-09-11T19:21:13.367Z,27.21
2018-09-11T19:23:41.968Z,27.17
2018-09-11T19:26:10.676Z,27.15
2018-09-11T19:28:39.231Z,27.12
2018-09-11T19:31:07.822Z,27.09
2018-09-11T19:33:36.562Z,27.05
2018-09-11T19:36:05.112Z,27.01
2018-09-11T19:38:33.730Z,26.97
2018-09-11T19:41:02.364Z,26.93
2018-09-11T19:43:30.943Z,26.90
2018-09-11T19:45:59.870Z,26.85
2018-09-11T19:48:28.523Z,26.80
2018-09-11T19:50:57.342Z,26.76
2018-09-11T19:53:26.165Z,26.72
2018-09-11T19:55:54.881Z,26.67
2018-09-11T19:58:23.554Z,26.61
2018-09-11T20:00:52.115Z,26.56
2018-09-11T20:03:20.803Z,26.50
2018-09-11T20:05:49.398Z,26.46
2018-09-11T20:08:17.877Z,26.41
2018-09-11T20:10:46.550Z,26.36
2018-09-11T20:13:15.119Z,26.30
2018-09-11T20:15:43.733Z,26.25
2018-09-11T20:18:12.350Z,26.20
2018-09-11T20:20:41.132Z,26.13
2018-09-11T20:23:09.826Z,26.06
2018-09-11T20:25:38.428Z,26.00
2018-09-11T20:28:07.713Z,25.97
2018-09-11T20:30:36.600Z,25.93
2018-09-11T20:33:05.413Z,25.88
2018-09-11T20:35:34.390Z,25.84
2018-09-11T20:38:02.996Z,25.81
2018-09-11T20:40:31.600Z,25.76
2018-09-11T20:43:00.466Z,25.73
2018-09-11T20:45:29.169Z,25.69
2018-09-11T20:47:57.985Z,25.64
2018-09-11T20:50:26.668Z,25.60
2018-09-11T20:52:55.393Z,25.54
2018-09-11T20:55:24.177Z,25.51
2018-09-11T20:57:52.783Z,25.46
2018-09-11T21:00:21.528Z,25.41
2018-09-11T21:02:50.243Z,25.37
2018-09-11T21:05:18.986Z,25.33
2018-09-11T21:07:47.669Z,25.30
2018-09-11T21:10:16.385Z,25.24
2018-09-11T21:12:44.997Z,25.20
2018-09-11T21:15:13.615Z,25.16
2018-09-11T21:17:42.268Z,25.12
2018-09-11T21:20:11.051Z,25.07
2018-09-11T21:22:39.647Z,25.05
2018-09-11T21:25:08.365Z,25.03
2018-09-11T21:27:37.057Z,25.00
2018-09-11T21:30:05.741Z,24.95
2018-09-11T21:32:34.264Z,24.93
2018-09-11T21:35:02.860Z,24.91
2018-09-11T21:37:31.554Z,24.87
2018-09-11T21:40:00.213Z,24.84
2018-09-11T21:42:28.891Z,24.80
2018-09-11T21:44:57.678Z,24.78
2018-09-11T21:47:26.443Z,24.76
2018-09-11T21:49:55.008Z,24.73
2018-09-11T21:52:25.381Z,24.71
2018-09-11T21:54:54.364Z,24.69
2018-09-11T21:57:24.222Z,24.67
2018-09-11T21:59:52.770Z,24.65
2018-09-11T22:02:21.756Z,24.63
2018-09-11T22:04:50.296Z,24.61
2018-09-11T22:07:18.847Z,24.59
2018-09-11T22:09:47.385Z,24.56
2018-09-11T22:12:15.987Z,24.54
2018-09-11T22:14:44.541Z,24.53
2018-09-11T22:17:13.071Z,24.52
2018-09-11T22:19:41.643Z,24.51
2018-09-11T22:22:11.511Z,24.48
2018-09-11T22:24:40.071Z,24.46
2018-09-11T22:27:08.631Z,24.44
2018-09-11T22:29:37.187Z,24.41
2018-09-11T22:32:05.722Z,24.39
2018-09-11T22:34:40.047Z,24.36
2018-09-11T22:37:08.689Z,24.33
2018-09-11T22:39:37.208Z,24.31
2018-09-11T22:42:05.789Z,24.26
2018-09-11T22:44:34.308Z,24.24
2018-09-11T22:47:02.879Z,24.20
2018-09-11T22:49:31.404Z,24.17
2018-09-11T22:51:59.958Z,24.14
2018-09-11T22:54:28.471Z,24.13
2018-09-11T22:56:57.026Z,24.12
2018-09-11T22:59:25.555Z,24.11
2018-09-11T23:01:54.170Z,24.11
2018-09-11T23:04:22.781Z,24.10
2018-09-11T23:06:51.409Z,24.09
2018-09-11T23:09:19.905Z,24.08
2018-09-11T23:11:48.413Z,24.06
2018-09-11T23:14:16.948Z,24.06
2018-09-11T23:16:45.485Z,24.05
2018-09-11T23:19:14.023Z,24.05
2018-09-11T23:21:42.529Z,24.04
2018-09-11T23:24:10.969Z,24.02
2018-09-11T23:26:39.528Z,24.01
2018-09-11T23:29:08.027Z,23.99
2018-09-11T23:31:36.594Z,23.97
2018-09-11T23:34:05.049Z,23.94
2018-09-11T23:36:33.647Z,23.92
2018-09-11T23:39:02.258Z,23.90
2018-09-11T23:41:30.770Z,23.88
2018-09-11T23:43:59.400Z,23.85
2018-09-11T23:46:27.887Z,23.84
2018-09-11T23:48:56.404Z,23.82
2018-09-11T23:51:24.911Z,23.79
2018-09-11T23:53:53.414Z,23.74
2018-09-11T23:56:21.936Z,23.69
2018-09-11T23:58:50.422Z,23.65
